createdAt,value
2023-04-09T00:00:02.519Z,4.05
2023-04-09T00:03:00.473Z,4.01
2023-04-09T00:05:28.749Z,3.99
2023-04-09T00:07:57.351Z,3.96
2023-04-09T00:10:25.466Z,3.93
2023-04-09T00:12:53.599Z,3.90
2023-04-09T00:15:30.753Z,3.88
2023-04-09T00:18:00.568Z,3.86
2023-04-09T00:20:28.797Z,3.85
2023-04-09T00:22:58.274Z,3.85
2023-04-09T00:25:26.518Z,3.84
2023-04-09T00:27:59.240Z,3.83
2023-04-09T00:30:31.165Z,3.83
2023-04-09T00:32:59.329Z,3.82
2023-04-09T00:35:27.603Z,3.81
2023-04-09T00:37:56.122Z,3.80
2023-04-09T00:40:24.308Z,3.79
2023-04-09T00:42:52.567Z,3.78
2023-04-09T00:45:20.779Z,3.76
2023-04-09T00:47:49.050Z,3.75
2023-04-09T00:50:17.272Z,3.74
2023-04-09T00:52:45.989Z,3.73
2023-04-09T00:55:14.218Z,3.72
2023-04-09T00:57:42.597Z,3.71
2023-04-09T01:00:13.196Z,3.70
2023-04-09T01:02:42.060Z,3.68
2023-04-09T01:05:12.915Z,3.67
2023-04-09T01:08:16.973Z,3.66
2023-04-09T01:11:03.016Z,3.65
2023-04-09T01:13:48.127Z,3.63
2023-04-09T01:16:20.237Z,3.62
2023-04-09T01:19:12.031Z,3.61
2023-04-09T01:21:42.234Z,3.60
2023-04-09T01:24:29.830Z,3.60
2023-04-09T01:27:01.697Z,3.59
2023-04-09T01:29:45.757Z,3.59
2023-04-09T01:32:18.846Z,3.58
2023-04-09T01:34:48.452Z,3.58
2023-04-09T01:37:18.323Z,3.58
2023-04-09T01:39:47.364Z,3.58
2023-04-09T01:42:16.411Z,3.57
2023-04-09T01:44:46.550Z,3.57
2023-04-09T01:47:14.861Z,3.58
2023-04-09T01:49:43.880Z,3.57
2023-04-09T01:52:12.639Z,3.57
2023-04-09T01:54:42.568Z,3.57
2023-04-09T01:57:10.804Z,3.57
2023-04-09T01:59:38.930Z,3.56
2023-04-09T02:02:12.535Z,3.56
2023-04-09T02:04:46.158Z,3.55
2023-04-09T02:07:31.032Z,3.54
2023-04-09T02:10:01.544Z,3.54
2023-04-09T02:12:32.109Z,3.53
2023-04-09T02:15:02.403Z,3.52
2023-04-09T02:17:30.638Z,3.52
2023-04-09T02:19:58.907Z,3.51
2023-04-09T02:22:26.994Z,3.50
2023-04-09T02:24:55.216Z,3.49
2023-04-09T02:27:23.314Z,3.49
2023-04-09T02:29:51.411Z,3.47
2023-04-09T02:32:20.236Z,3.46
2023-04-09T02:34:48.692Z,3.45
2023-04-09T02:37:18.376Z,3.44
2023-04-09T02:39:48.695Z,3.43
2023-04-09T02:42:16.849Z,3.43
2023-04-09T02:44:44.939Z,3.42
2023-04-09T02:47:13.715Z,3.40
2023-04-09T02:49:41.926Z,3.39
2023-04-09T02:52:11.496Z,3.39
2023-04-09T02:54:39.723Z,3.39
2023-04-09T02:57:07.953Z,3.38
2023-04-09T02:59:36.264Z,3.36
2023-04-09T03:02:04.690Z,3.36
2023-04-09T03:04:33.108Z,3.34
2023-04-09T03:07:02.109Z,3.33
2023-04-09T03:09:30.871Z,3.32
2023-04-09T03:11:58.984Z,3.30
2023-04-09T03:14:27.070Z,3.29
2023-04-09T03:16:55.785Z,3.28
2023-04-09T03:19:23.970Z,3.27
2023-04-09T03:21:52.225Z,3.25
2023-04-09T03:24:23.146Z,3.24
2023-04-09T03:26:52.005Z,3.24
2023-04-09T03:29:20.280Z,3.22
2023-04-09T03:31:48.712Z,3.22
2023-04-09T03:34:16.935Z,3.21
2023-04-09T03:36:46.101Z,3.19
2023-04-09T03:39:24.292Z,3.18
2023-04-09T03:41:53.263Z,3.17
2023-04-09T03:44:21.639Z,3.16
2023-04-09T03:47:08.750Z,3.15
2023-04-09T03:49:37.327Z,3.14
2023-04-09T03:52:12.591Z,3.14
2023-04-09T03:54:44.456Z,3.14
2023-04-09T03:57:16.513Z,3.13
2023-04-09T03:59:45.582Z,3.14
2023-04-09T04:02:14.563Z,3.14
2023-04-09T04:04:46.433Z,3.15
2023-04-09T04:07:14.785Z,3.15
2023-04-09T04:09:49.966Z,3.16
2023-04-09T04:12:19.780Z,3.17
2023-04-09T04:14:56.005Z,3.19
2023-04-09T04:17:33.035Z,3.19
2023-04-09T04:20:01.693Z,3.20
2023-04-09T04:22:30.902Z,3.20
2023-04-09T04:25:00.050Z,3.21
2023-04-09T04:27:28.248Z,3.22
2023-04-09T04:29:58.915Z,3.23
2023-04-09T04:32:53.277Z,3.23
2023-04-09T04:35:22.203Z,3.24
2023-04-09T04:37:52.650Z,3.25
2023-04-09T04:40:21.388Z,3.26
2023-04-09T04:42:52.650Z,3.26
2023-04-09T04:45:20.976Z,3.28
2023-04-09T04:47:54.442Z,3.30
2023-04-09T04:50:22.639Z,3.31
2023-04-09T04:53:03.554Z,3.33
2023-04-09T04:55:39.739Z,3.36
2023-04-09T04:58:08.633Z,3.38
2023-04-09T05:00:44.021Z,3.40
2023-04-09T05:03:13.118Z,3.43
2023-04-09T05:05:54.946Z,3.47
2023-04-09T05:08:23.774Z,3.52
2023-04-09T05:10:56.264Z,3.55
2023-04-09T05:13:27.617Z,3.59
2023-04-09T05:15:56.472Z,3.63
2023-04-09T05:18:25.170Z,3.67
2023-04-09T05:20:53.292Z,3.71
2023-04-09T05:23:21.843Z,3.76
2023-04-09T05:25:51.126Z,3.81
2023-04-09T05:28:57.556Z,3.87
2023-04-09T05:31:26.765Z,3.92
2023-04-09T05:33:58.458Z,3.96
2023-04-09T05:36:37.299Z,4.00
2023-04-09T05:39:05.586Z,4.04
2023-04-09T05:41:33.814Z,4.10
2023-04-09T05:44:16.531Z,4.16
2023-04-09T05:46:47.354Z,4.21
2023-04-09T05:49:17.913Z,4.28
2023-04-09T05:51:47.325Z,4.36
2023-04-09T05:54:18.140Z,4.44
2023-04-09T05:56:46.362Z,4.50
2023-04-09T05:59:14.650Z,4.52
2023-04-09T06:01:42.937Z,4.54
2023-04-09T06:04:11.359Z,4.59
2023-04-09T06:06:40.202Z,4.64
2023-04-09T06:09:08.378Z,4.70
2023-04-09T06:11:38.933Z,4.75
2023-04-09T06:14:07.190Z,4.79
2023-04-09T06:16:36.206Z,4.85
2023-04-09T06:19:04.404Z,4.93
2023-04-09T06:21:33.432Z,5.01
2023-04-09T06:24:01.874Z,5.08
2023-04-09T06:26:30.031Z,5.16
2023-04-09T06:28:58.130Z,5.25
2023-04-09T06:31:26.562Z,5.36
2023-04-09T06:33:55.404Z,5.48
2023-04-09T06:36:23.793Z,5.61
2023-04-09T06:38:51.848Z,5.74
2023-04-09T06:41:23.882Z,5.87
2023-04-09T06:43:52.745Z,6.06
2023-04-09T06:46:21.707Z,6.27
2023-04-09T06:48:51.901Z,6.50
2023-04-09T06:51:20.066Z,6.70
2023-04-09T06:53:48.515Z,6.91
2023-04-09T06:56:16.879Z,7.15
2023-04-09T06:58:45.136Z,7.41
2023-04-09T07:01:13.492Z,7.61
2023-04-09T07:03:43.811Z,7.82
2023-04-09T07:06:12.083Z,8.05
2023-04-09T07:08:40.146Z,8.25
2023-04-09T07:11:08.630Z,8.45
2023-04-09T07:13:36.849Z,8.63
2023-04-09T07:16:05.315Z,8.77
2023-04-09T07:18:33.450Z,8.92
2023-04-09T07:21:02.160Z,9.07
2023-04-09T07:23:36.390Z,9.29
2023-04-09T07:26:05.533Z,9.60
2023-04-09T07:28:35.002Z,9.94
2023-04-09T07:31:05.584Z,10.33
2023-04-09T07:33:34.015Z,10.74
2023-04-09T07:36:02.543Z,11.14
2023-04-09T07:38:30.814Z,11.55
2023-04-09T07:40:59.178Z,11.92
2023-04-09T07:43:27.486Z,12.25
2023-04-09T07:45:56.044Z,12.57
2023-04-09T07:48:24.247Z,12.88
2023-04-09T07:50:52.918Z,13.15
2023-04-09T07:53:21.466Z,13.37
2023-04-09T07:55:51.948Z,13.49
2023-04-09T07:58:20.112Z,13.55
2023-04-09T08:00:48.673Z,13.49
2023-04-09T08:03:17.797Z,13.37
2023-04-09T08:05:46.861Z,13.28
2023-04-09T08:08:15.081Z,13.01
2023-04-09T08:10:43.324Z,12.77
2023-04-09T08:13:12.120Z,12.58
2023-04-09T08:15:40.668Z,12.41
2023-04-09T08:18:09.470Z,12.46
2023-04-09T08:20:37.975Z,12.63
2023-04-09T08:23:06.132Z,12.89
2023-04-09T08:25:34.348Z,13.21
2023-04-09T08:28:02.491Z,13.54
2023-04-09T08:30:30.761Z,13.82
2023-04-09T08:32:59.145Z,14.04
2023-04-09T08:35:28.596Z,14.26
2023-04-09T08:37:56.977Z,14.51
2023-04-09T08:40:25.400Z,14.67
2023-04-09T08:42:58.322Z,14.67
2023-04-09T08:45:26.479Z,14.72
2023-04-09T08:47:54.816Z,14.83
2023-04-09T08:50:23.131Z,14.89
2023-04-09T08:52:51.297Z,14.90
2023-04-09T08:55:19.552Z,14.83
2023-04-09T08:57:47.848Z,14.88
2023-04-09T09:00:15.957Z,15.01
2023-04-09T09:03:04.816Z,15.18
2023-04-09T09:05:41.436Z,15.34
2023-04-09T09:08:12.055Z,15.44
2023-04-09T09:10:45.669Z,15.60
2023-04-09T09:13:27.617Z,15.85
2023-04-09T09:16:12.970Z,15.90
2023-04-09T09:18:43.314Z,15.80
2023-04-09T09:21:16.582Z,15.75
2023-04-09T09:23:46.145Z,15.73
2023-04-09T09:26:18.640Z,15.66
2023-04-09T09:28:48.403Z,15.80
2023-04-09T09:31:18.921Z,16.09
2023-04-09T09:33:48.484Z,16.29
2023-04-09T09:36:31.803Z,16.29
2023-04-09T09:39:10.192Z,16.14
2023-04-09T09:41:40.027Z,15.84
2023-04-09T09:44:10.464Z,15.51
2023-04-09T09:46:41.468Z,15.45
2023-04-09T09:49:10.069Z,15.51
2023-04-09T09:51:40.873Z,15.64
2023-04-09T09:54:10.835Z,15.82
2023-04-09T09:56:39.831Z,15.98
2023-04-09T09:59:22.102Z,16.03
2023-04-09T10:02:03.821Z,16.08
2023-04-09T10:04:38.449Z,16.22
2023-04-09T10:07:08.381Z,16.13
2023-04-09T10:09:38.595Z,16.01
2023-04-09T10:12:09.067Z,15.89
2023-04-09T10:14:38.342Z,15.84
2023-04-09T10:17:06.931Z,15.87
2023-04-09T10:19:41.604Z,15.87
2023-04-09T10:22:17.143Z,15.68
2023-04-09T10:24:47.296Z,15.50
2023-04-09T10:27:17.484Z,15.37
2023-04-09T10:29:47.660Z,15.30
2023-04-09T10:32:21.793Z,15.31
2023-04-09T10:34:50.869Z,15.53
2023-04-09T10:37:25.268Z,15.69
2023-04-09T10:39:53.938Z,15.71
2023-04-09T10:42:40.793Z,16.02
2023-04-09T10:45:14.678Z,16.41
2023-04-09T10:47:44.251Z,16.54
2023-04-09T10:50:25.815Z,16.66
2023-04-09T10:52:59.764Z,16.89
2023-04-09T10:55:42.567Z,17.10
2023-04-09T10:58:13.548Z,17.20
2023-04-09T11:00:43.992Z,17.24
2023-04-09T11:03:24.031Z,17.38
2023-04-09T11:06:06.235Z,17.78
2023-04-09T11:08:35.524Z,18.17
2023-04-09T11:11:04.179Z,18.17
2023-04-09T11:13:34.193Z,18.19
2023-04-09T11:16:07.153Z,18.15
2023-04-09T11:18:37.213Z,18.06
2023-04-09T11:21:05.960Z,18.00
2023-04-09T11:23:34.629Z,17.90
2023-04-09T11:26:02.918Z,17.70
2023-04-09T11:28:31.182Z,17.44
2023-04-09T11:30:59.445Z,17.13
2023-04-09T11:33:34.393Z,16.90
2023-04-09T11:36:06.129Z,16.74
2023-04-09T11:38:34.417Z,16.59
2023-04-09T11:41:02.457Z,16.17
2023-04-09T11:43:30.886Z,15.79
2023-04-09T11:45:59.656Z,15.66
2023-04-09T11:48:28.015Z,15.60
2023-04-09T11:50:57.373Z,15.56
2023-04-09T11:53:31.304Z,15.50
2023-04-09T11:55:59.738Z,15.40
2023-04-09T11:58:28.350Z,15.34
2023-04-09T12:00:59.295Z,15.16
2023-04-09T12:03:35.000Z,15.13
2023-04-09T12:06:05.794Z,15.06
2023-04-09T12:08:37.626Z,14.92
2023-04-09T12:11:13.599Z,14.75
2023-04-09T12:13:44.937Z,14.67
2023-04-09T12:16:14.002Z,14.60
2023-04-09T12:18:42.407Z,14.58
2023-04-09T12:21:10.901Z,14.51
2023-04-09T12:23:39.042Z,14.41
2023-04-09T12:26:07.219Z,14.29
2023-04-09T12:28:35.544Z,14.27
2023-04-09T12:31:03.811Z,14.36
2023-04-09T12:33:32.579Z,14.44
2023-04-09T12:36:00.893Z,14.48
2023-04-09T12:38:29.080Z,14.54
2023-04-09T12:40:57.312Z,14.62
2023-04-09T12:43:25.478Z,14.70
2023-04-09T12:45:53.597Z,14.82
2023-04-09T12:48:21.807Z,14.95
2023-04-09T12:50:49.947Z,15.03
2023-04-09T12:53:18.532Z,15.11
2023-04-09T12:55:47.241Z,15.16
2023-04-09T12:58:15.518Z,15.14
2023-04-09T13:00:43.807Z,15.17
2023-04-09T13:03:12.312Z,15.21
2023-04-09T13:05:40.724Z,15.30
2023-04-09T13:08:08.927Z,15.44
2023-04-09T13:10:37.022Z,15.50
2023-04-09T13:13:06.279Z,15.61
2023-04-09T13:15:34.544Z,15.73
2023-04-09T13:18:03.300Z,15.82
2023-04-09T13:20:31.793Z,15.82
2023-04-09T13:22:59.920Z,15.81
2023-04-09T13:25:28.200Z,15.81
2023-04-09T13:27:56.398Z,15.77
2023-04-09T13:30:24.674Z,15.75
2023-04-09T13:32:53.004Z,15.77
2023-04-09T13:35:21.216Z,15.75
2023-04-09T13:37:49.378Z,15.73
2023-04-09T13:40:17.848Z,15.67
2023-04-09T13:42:46.030Z,15.58
2023-04-09T13:45:14.182Z,15.51
2023-04-09T13:47:43.213Z,15.47
2023-04-09T13:50:13.257Z,15.36
2023-04-09T13:52:41.422Z,15.24
2023-04-09T13:55:09.844Z,15.11
2023-04-09T13:57:38.034Z,15.01
2023-04-09T14:00:08.239Z,14.95
2023-04-09T14:02:36.496Z,14.90
2023-04-09T14:05:05.090Z,14.87
2023-04-09T14:07:33.328Z,14.83
2023-04-09T14:10:02.386Z,14.78
2023-04-09T14:12:30.568Z,14.68
2023-04-09T14:14:58.702Z,14.61
2023-04-09T14:17:26.894Z,14.65
2023-04-09T14:19:55.068Z,14.66
2023-04-09T14:22:23.212Z,14.67
2023-04-09T14:24:51.664Z,14.70
2023-04-09T14:27:19.732Z,14.71
2023-04-09T14:29:48.113Z,14.72
2023-04-09T14:32:17.302Z,14.70
2023-04-09T14:34:45.726Z,14.69
2023-04-09T14:37:14.016Z,14.63
2023-04-09T14:39:42.165Z,14.58
2023-04-09T14:42:10.524Z,14.51
2023-04-09T14:44:39.218Z,14.40
2023-04-09T14:47:07.406Z,14.33
2023-04-09T14:49:35.659Z,14.29
2023-04-09T14:52:03.948Z,14.26
2023-04-09T14:54:32.224Z,14.16
2023-04-09T14:57:02.732Z,14.05
2023-04-09T14:59:31.192Z,13.97
2023-04-09T15:01:59.719Z,13.94
2023-04-09T15:04:28.180Z,13.92
2023-04-09T15:06:56.782Z,13.92
2023-04-09T15:09:25.087Z,13.92
2023-04-09T15:11:54.506Z,13.87
2023-04-09T15:14:23.959Z,13.85
2023-04-09T15:16:55.898Z,13.83
2023-04-09T15:19:24.199Z,13.81
2023-04-09T15:21:52.457Z,13.77
2023-04-09T15:24:20.647Z,13.71
2023-04-09T15:26:49.840Z,13.65
2023-04-09T15:29:18.141Z,13.59
2023-04-09T15:31:46.405Z,13.53
2023-04-09T15:34:14.644Z,13.46
2023-04-09T15:36:42.864Z,13.37
2023-04-09T15:39:12.312Z,13.29
2023-04-09T15:41:40.689Z,13.20
2023-04-09T15:44:08.843Z,13.15
2023-04-09T15:46:40.071Z,13.16
2023-04-09T15:49:08.331Z,13.22
2023-04-09T15:51:36.546Z,13.23
2023-04-09T15:54:04.803Z,13.27
2023-04-09T15:56:33.221Z,13.34
2023-04-09T15:59:05.200Z,13.38
2023-04-09T16:01:34.352Z,13.36
2023-04-09T16:04:03.722Z,13.30
2023-04-09T16:06:32.017Z,13.19
2023-04-09T16:09:00.225Z,13.06
2023-04-09T16:11:28.538Z,12.95
2023-04-09T16:13:57.355Z,12.84
2023-04-09T16:16:25.556Z,12.73
2023-04-09T16:18:54.776Z,12.61
2023-04-09T16:21:23.275Z,12.49
2023-04-09T16:23:51.791Z,12.39
2023-04-09T16:26:19.993Z,12.28
2023-04-09T16:28:50.084Z,12.18
2023-04-09T16:31:18.511Z,12.05
2023-04-09T16:33:48.278Z,11.95
2023-04-09T16:36:16.582Z,11.85
2023-04-09T16:38:44.820Z,11.74
2023-04-09T16:41:13.035Z,11.63
2023-04-09T16:43:41.200Z,11.53
2023-04-09T16:46:10.887Z,11.41
2023-04-09T16:48:41.886Z,11.30
2023-04-09T16:51:10.430Z,11.18
2023-04-09T16:53:39.029Z,11.05
2023-04-09T16:56:08.022Z,10.92
2023-04-09T16:58:36.215Z,10.78
2023-04-09T17:01:05.485Z,10.65
2023-04-09T17:03:33.668Z,10.52
2023-04-09T17:06:02.764Z,10.40
2023-04-09T17:08:31.024Z,10.27
2023-04-09T17:11:02.453Z,10.12
2023-04-09T17:13:33.001Z,9.97
2023-04-09T17:16:02.764Z,9.83
2023-04-09T17:18:31.013Z,9.70
2023-04-09T17:20:59.909Z,9.58
2023-04-09T17:23:28.135Z,9.45
2023-04-09T17:25:57.024Z,9.33
2023-04-09T17:28:25.172Z,9.22
2023-04-09T17:30:53.382Z,9.08
2023-04-09T17:33:22.040Z,8.93
2023-04-09T17:35:50.377Z,8.79
2023-04-09T17:38:21.504Z,8.64
2023-04-09T17:40:50.726Z,8.51
2023-04-09T17:43:19.050Z,8.38
2023-04-09T17:45:47.105Z,8.27
2023-04-09T17:48:15.823Z,8.17
2023-04-09T17:50:43.922Z,8.06
2023-04-09T17:53:12.119Z,7.96
2023-04-09T17:55:46.703Z,7.87
2023-04-09T17:58:15.539Z,7.79
2023-04-09T18:00:44.390Z,7.71
2023-04-09T18:03:12.851Z,7.64
2023-04-09T18:05:41.422Z,7.56
2023-04-09T18:08:10.174Z,7.47
2023-04-09T18:10:38.370Z,7.38
2023-04-09T18:13:06.551Z,7.30
2023-04-09T18:15:34.846Z,7.22
2023-04-09T18:18:03.186Z,7.14
2023-04-09T18:20:31.337Z,7.07
2023-04-09T18:22:59.483Z,7.01
2023-04-09T18:25:29.922Z,6.95
2023-04-09T18:27:58.150Z,6.89
2023-04-09T18:30:26.494Z,6.84
2023-04-09T18:32:56.073Z,6.77
2023-04-09T18:35:25.326Z,6.72
2023-04-09T18:37:54.616Z,6.68
2023-04-09T18:40:22.913Z,6.66
2023-04-09T18:42:54.282Z,6.65
2023-04-09T18:45:22.768Z,6.63
2023-04-09T18:47:51.020Z,6.61
2023-04-09T18:50:19.336Z,6.62
2023-04-09T18:52:49.574Z,6.64
2023-04-09T18:55:20.473Z,6.66
2023-04-09T18:57:48.616Z,6.67
2023-04-09T19:00:17.765Z,6.68
2023-04-09T19:02:46.665Z,6.69
2023-04-09T19:05:14.874Z,6.70
2023-04-09T19:07:43.522Z,6.71
2023-04-09T19:10:13.222Z,6.70
2023-04-09T19:12:49.784Z,6.68
2023-04-09T19:15:18.016Z,6.66
2023-04-09T19:17:46.466Z,6.65
2023-04-09T19:20:18.615Z,6.62
2023-04-09T19:22:51.041Z,6.59
2023-04-09T19:25:20.504Z,6.55
2023-04-09T19:27:58.718Z,6.50
2023-04-09T19:30:47.170Z,6.45
2023-04-09T19:33:15.709Z,6.40
2023-04-09T19:35:54.820Z,6.34
2023-04-09T19:38:23.556Z,6.28
2023-04-09T19:40:52.465Z,6.25
2023-04-09T19:43:21.184Z,6.20
2023-04-09T19:45:49.588Z,6.16
2023-04-09T19:48:18.609Z,6.10
2023-04-09T19:50:48.584Z,6.08
2023-04-09T19:53:31.259Z,6.01
2023-04-09T19:56:04.544Z,5.99
2023-04-09T19:59:50.673Z,5.92
2023-04-09T20:02:20.486Z,5.81
2023-04-09T20:04:52.454Z,5.76
2023-04-09T20:07:22.382Z,5.70
2023-04-09T20:09:51.769Z,5.67
2023-04-09T20:12:21.881Z,5.63
2023-04-09T20:14:58.985Z,5.59
2023-04-09T20:17:27.377Z,5.55
2023-04-09T20:19:56.139Z,5.49
2023-04-09T20:22:24.524Z,5.43
2023-04-09T20:24:52.804Z,5.37
2023-04-09T20:27:22.167Z,5.31
2023-04-09T20:29:50.284Z,5.24
2023-04-09T20:32:18.812Z,5.17
2023-04-09T20:34:47.303Z,5.11
2023-04-09T20:37:15.576Z,5.05
2023-04-09T20:39:43.772Z,5.00
2023-04-09T20:42:11.947Z,4.93
2023-04-09T20:44:40.368Z,4.88
2023-04-09T20:47:08.438Z,4.83
2023-04-09T20:49:36.850Z,4.77
2023-04-09T20:52:04.925Z,4.71
2023-04-09T20:54:33.100Z,4.64
2023-04-09T20:57:01.898Z,4.59
2023-04-09T20:59:30.082Z,4.53
2023-04-09T21:01:58.474Z,4.47
2023-04-09T21:04:27.673Z,4.41
2023-04-09T21:06:56.039Z,4.35
2023-04-09T21:09:25.240Z,4.30
2023-04-09T21:11:53.898Z,4.24
2023-04-09T21:14:22.049Z,4.18
2023-04-09T21:16:51.954Z,4.12
2023-04-09T21:19:20.463Z,4.08
2023-04-09T21:21:48.802Z,4.03
2023-04-09T21:24:18.454Z,3.99
2023-04-09T21:26:51.745Z,3.94
2023-04-09T21:29:26.179Z,3.90
2023-04-09T21:31:54.682Z,3.86
2023-04-09T21:34:22.900Z,3.84
2023-04-09T21:36:51.371Z,3.83
2023-04-09T21:39:19.709Z,3.83
2023-04-09T21:41:47.938Z,3.83
2023-04-09T21:44:16.190Z,3.84
2023-04-09T21:46:44.353Z,3.85
2023-04-09T21:49:13.540Z,3.86
2023-04-09T21:51:41.804Z,3.89
2023-04-09T21:54:10.357Z,3.91
2023-04-09T21:56:38.784Z,3.93
2023-04-09T21:59:07.285Z,3.95
2023-04-09T22:01:35.664Z,3.96
2023-04-09T22:04:04.582Z,3.98
2023-04-09T22:06:33.031Z,3.99
2023-04-09T22:09:02.140Z,4.00
2023-04-09T22:11:31.206Z,4.00
2023-04-09T22:13:59.330Z,3.99
2023-04-09T22:16:27.862Z,3.98
2023-04-09T22:18:56.898Z,3.97
2023-04-09T22:21:31.741Z,3.96
2023-04-09T22:23:59.923Z,3.96
2023-04-09T22:26:28.222Z,3.97
2023-04-09T22:28:56.691Z,3.98
2023-04-09T22:31:28.563Z,3.99
2023-04-09T22:34:19.224Z,3.99
2023-04-09T22:36:50.862Z,4.00
2023-04-09T22:39:18.934Z,4.00
2023-04-09T22:41:47.271Z,3.99
2023-04-09T22:44:15.558Z,3.98
2023-04-09T22:46:43.829Z,3.98
2023-04-09T22:49:12.383Z,3.99
2023-04-09T22:51:41.658Z,4.00
2023-04-09T22:54:10.528Z,4.03
2023-04-09T22:56:38.688Z,4.05
2023-04-09T22:59:06.845Z,4.05
2023-04-09T23:01:35.233Z,4.06
2023-04-09T23:04:03.558Z,4.07
2023-04-09T23:06:32.092Z,4.07
2023-04-09T23:09:00.577Z,4.09
2023-04-09T23:11:29.005Z,4.09
2023-04-09T23:13:57.146Z,4.09
2023-04-09T23:16:26.455Z,4.08
2023-04-09T23:18:54.894Z,4.07
2023-04-09T23:21:23.173Z,4.05
2023-04-09T23:23:51.463Z,4.02
2023-04-09T23:26:19.735Z,3.98
2023-04-09T23:28:47.887Z,3.93
2023-04-09T23:31:16.345Z,3.88
2023-04-09T23:33:44.458Z,3.84
2023-04-09T23:36:12.548Z,3.79
2023-04-09T23:38:43.637Z,3.73
2023-04-09T23:41:14.290Z,3.69
2023-04-09T23:43:46.100Z,3.65
2023-04-09T23:46:14.302Z,3.60
2023-04-09T23:48:42.421Z,3.56
2023-04-09T23:51:17.485Z,3.52
2023-04-09T23:53:45.845Z,3.47
2023-04-09T23:56:14.634Z,3.44
2023-04-09T23:58:43.328Z,3.41
